sensor_id;sensor_type;location;lat;lon;timestamp;pressure;altitude;pressure_sealevel;temperature;humidity
58991;BME280;44781;53.444;14.476;2023-03-23T00:00:07;100489.17;;;11.59;67.76
58991;BME280;44781;53.444;14.476;2023-03-23T00:02:58;100482.05;;;11.59;67.94
58991;BME280;44781;53.444;14.476;2023-03-23T00:05:25;100477.75;;;11.60;67.90
58991;BME280;44781;53.444;14.476;2023-03-23T00:55:30;100446.95;;;11.25;68.22
58991;BME280;44781;53.444;14.476;2023-03-23T06:22:21;100299.75;;;11.50;77.71
58991;BME280;44781;53.444;14.476;2023-03-23T07:03:47;100322.64;;;12.32;77.06
58991;BME280;44781;53.444;14.476;2023-03-23T07:06:13;100320.45;;;12.22;77.21
58991;BME280;44781;53.444;14.476;2023-03-23T07:12:54;100327.20;;;12.07;77.35
58991;BME280;44781;53.444;14.476;2023-03-23T07:15:25;100321.95;;;12.00;77.65
58991;BME280;44781;53.444;14.476;2023-03-23T07:18:24;100325.08;;;11.96;77.78
58991;BME280;44781;53.444;14.476;2023-03-23T07:21:52;100323.89;;;11.94;78.02
58991;BME280;44781;53.444;14.476;2023-03-23T07:24:28;100326.48;;;11.93;78.32
58991;BME280;44781;53.444;14.476;2023-03-23T07:27:22;100323.08;;;11.91;78.35
58991;BME280;44781;53.444;14.476;2023-03-23T07:30:10;100321.92;;;11.88;78.51
58991;BME280;44781;53.444;14.476;2023-03-23T07:32:50;100318.93;;;11.88;78.58
58991;BME280;44781;53.444;14.476;2023-03-23T07:35:20;100321.66;;;11.91;78.78
58991;BME280;44781;53.444;14.476;2023-03-23T07:37:55;100321.76;;;11.94;78.98
58991;BME280;44781;53.444;14.476;2023-03-23T07:40:43;100322.20;;;11.97;79.07
58991;BME280;44781;53.444;14.476;2023-03-23T07:43:21;100323.46;;;11.99;79.22
58991;BME280;44781;53.444;14.476;2023-03-23T07:46:14;100325.55;;;11.99;79.19
58991;BME280;44781;53.444;14.476;2023-03-23T07:49:04;100323.09;;;11.97;79.19
58991;BME280;44781;53.444;14.476;2023-03-23T07:51:37;100324.31;;;11.97;79.27
58991;BME280;44781;53.444;14.476;2023-03-23T07:54:17;100326.31;;;11.99;79.26
58991;BME280;44781;53.444;14.476;2023-03-23T07:57:02;100330.10;;;12.00;79.31
58991;BME280;44781;53.444;14.476;2023-03-23T07:59:33;100328.33;;;12.02;79.56
58991;BME280;44781;53.444;14.476;2023-03-23T08:02:03;100326.16;;;12.04;79.65
58991;BME280;44781;53.444;14.476;2023-03-23T08:08:36;100324.05;;;12.04;79.81
58991;BME280;44781;53.444;14.476;2023-03-23T08:11:35;100327.43;;;12.04;79.79
58991;BME280;44781;53.444;14.476;2023-03-23T08:15:03;100325.32;;;12.06;80.04
58991;BME280;44781;53.444;14.476;2023-03-23T08:18:40;100298.83;;;12.11;80.16
58991;BME280;44781;53.444;14.476;2023-03-23T08:21:55;100281.44;;;12.07;80.27
58991;BME280;44781;53.444;14.476;2023-03-23T08:24:56;100303.33;;;12.16;80.49
58991;BME280;44781;53.444;14.476;2023-03-23T08:27:59;100316.85;;;12.17;80.31
58991;BME280;44781;53.444;14.476;2023-03-23T08:31:11;100328.92;;;12.19;80.30
58991;BME280;44781;53.444;14.476;2023-03-23T08:33:57;100326.52;;;12.22;80.43
58991;BME280;44781;53.444;14.476;2023-03-23T08:36:44;100325.63;;;12.26;80.52
58991;BME280;44781;53.444;14.476;2023-03-23T08:39:26;100323.61;;;12.31;80.67
58991;BME280;44781;53.444;14.476;2023-03-23T08:42:15;100320.45;;;12.34;80.58
58991;BME280;44781;53.444;14.476;2023-03-23T08:45:19;100315.23;;;12.36;80.41
58991;BME280;44781;53.444;14.476;2023-03-23T08:53:10;100319.77;;;12.40;80.50
58991;BME280;44781;53.444;14.476;2023-03-23T08:56:39;100323.35;;;12.44;80.42
58991;BME280;44781;53.444;14.476;2023-03-23T09:00:19;100323.23;;;12.47;80.28
58991;BME280;44781;53.444;14.476;2023-03-23T09:03:38;100325.45;;;12.50;80.20
58991;BME280;44781;53.444;14.476;2023-03-23T09:07:06;100331.88;;;12.51;80.04
58991;BME280;44781;53.444;14.476;2023-03-23T09:10:35;100325.75;;;12.50;79.86
58991;BME280;44781;53.444;14.476;2023-03-23T09:13:55;100322.05;;;12.52;79.84
58991;BME280;44781;53.444;14.476;2023-03-23T09:16:34;100317.39;;;12.56;80.04
58991;BME280;44781;53.444;14.476;2023-03-23T09:19:01;100318.02;;;12.61;80.02
58991;BME280;44781;53.444;14.476;2023-03-23T09:21:29;100326.13;;;12.66;80.10
58991;BME280;44781;53.444;14.476;2023-03-23T09:23:56;100326.62;;;12.70;80.16
58991;BME280;44781;53.444;14.476;2023-03-23T09:26:26;100328.66;;;12.73;80.08
58991;BME280;44781;53.444;14.476;2023-03-23T09:28:53;100333.95;;;12.75;79.99
58991;BME280;44781;53.444;14.476;2023-03-23T09:31:30;100336.96;;;12.79;80.02
58991;BME280;44781;53.444;14.476;2023-03-23T09:33:58;100335.17;;;12.83;79.90
58991;BME280;44781;53.444;14.476;2023-03-23T09:36:26;100337.98;;;12.87;80.01
58991;BME280;44781;53.444;14.476;2023-03-23T09:38:55;100334.69;;;12.92;80.07
58991;BME280;44781;53.444;14.476;2023-03-23T09:47:32;100318.70;;;13.06;80.75
58991;BME280;44781;53.444;14.476;2023-03-23T09:50:17;100316.20;;;13.14;80.46
58991;BME280;44781;53.444;14.476;2023-03-23T09:55:44;100319.13;;;13.28;80.27
58991;BME280;44781;53.444;14.476;2023-03-23T09:58:55;100317.23;;;13.35;79.98
58991;BME280;44781;53.444;14.476;2023-03-23T10:04:51;100309.30;;;13.48;79.62
58991;BME280;44781;53.444;14.476;2023-03-23T10:07:26;100317.74;;;13.56;79.31
58991;BME280;44781;53.444;14.476;2023-03-23T10:10:12;100317.63;;;13.61;79.17
58991;BME280;44781;53.444;14.476;2023-03-23T10:15:55;100308.42;;;13.75;78.59
58991;BME280;44781;53.444;14.476;2023-03-23T10:18:37;100314.25;;;13.83;78.70
58991;BME280;44781;53.444;14.476;2023-03-23T10:21:13;100313.89;;;13.91;78.23
58991;BME280;44781;53.444;14.476;2023-03-23T10:24:02;100315.22;;;13.99;77.87
58991;BME280;44781;53.444;14.476;2023-03-23T10:26:43;100309.95;;;14.04;77.35
58991;BME280;44781;53.444;14.476;2023-03-23T10:29:29;100307.56;;;14.08;77.18
58991;BME280;44781;53.444;14.476;2023-03-23T10:32:08;100310.42;;;14.11;76.43
58991;BME280;44781;53.444;14.476;2023-03-23T10:34:48;100311.81;;;14.13;76.19
58991;BME280;44781;53.444;14.476;2023-03-23T10:37:21;100314.40;;;14.16;75.84
58991;BME280;44781;53.444;14.476;2023-03-23T10:39:59;100317.98;;;14.19;75.44
58991;BME280;44781;53.444;14.476;2023-03-23T10:42:41;100309.00;;;14.24;74.87
58991;BME280;44781;53.444;14.476;2023-03-23T10:45:17;100306.95;;;14.31;75.07
58991;BME280;44781;53.444;14.476;2023-03-23T10:48:13;100311.60;;;14.39;74.94
58991;BME280;44781;53.444;14.476;2023-03-23T10:50:50;100311.04;;;14.47;74.60
58991;BME280;44781;53.444;14.476;2023-03-23T10:53:31;100306.98;;;14.52;74.29
58991;BME280;44781;53.444;14.476;2023-03-23T10:56:00;100304.58;;;14.57;74.04
58991;BME280;44781;53.444;14.476;2023-03-23T10:58:30;100297.35;;;14.60;73.43
58991;BME280;44781;53.444;14.476;2023-03-23T11:01:03;100288.30;;;14.61;73.20
58991;BME280;44781;53.444;14.476;2023-03-23T11:03:50;100284.88;;;14.66;73.01
58991;BME280;44781;53.444;14.476;2023-03-23T11:06:35;100280.83;;;14.69;73.09
58991;BME280;44781;53.444;14.476;2023-03-23T11:09:51;100276.69;;;14.72;72.95
58991;BME280;44781;53.444;14.476;2023-03-23T11:12:24;100278.13;;;14.79;72.63
58991;BME280;44781;53.444;14.476;2023-03-23T11:15:15;100274.57;;;14.86;72.21
58991;BME280;44781;53.444;14.476;2023-03-23T11:18:09;100279.02;;;14.95;71.85
58991;BME280;44781;53.444;14.476;2023-03-23T11:20:54;100280.73;;;15.03;71.73
58991;BME280;44781;53.444;14.476;2023-03-23T11:23:35;100281.89;;;15.09;71.61
58991;BME280;44781;53.444;14.476;2023-03-23T11:26:31;100284.04;;;15.14;71.46
58991;BME280;44781;53.444;14.476;2023-03-23T11:31:47;100287.71;;;15.23;70.76
58991;BME280;44781;53.444;14.476;2023-03-23T11:34:35;100291.04;;;15.25;70.42
58991;BME280;44781;53.444;14.476;2023-03-23T11:37:10;100297.67;;;15.25;70.05
58991;BME280;44781;53.444;14.476;2023-03-23T11:39:48;100304.17;;;15.24;69.61
58991;BME280;44781;53.444;14.476;2023-03-23T11:42:24;100308.30;;;15.24;69.41
58991;BME280;44781;53.444;14.476;2023-03-23T11:45:19;100311.98;;;15.24;68.89
58991;BME280;44781;53.444;14.476;2023-03-23T11:51:16;100308.11;;;15.25;68.86
58991;BME280;44781;53.444;14.476;2023-03-23T11:54:03;100307.52;;;15.26;68.51
58991;BME280;44781;53.444;14.476;2023-03-23T11:56:52;100302.35;;;15.28;68.12
58991;BME280;44781;53.444;14.476;2023-03-23T11:59:29;100300.86;;;15.30;67.80
58991;BME280;44781;53.444;14.476;2023-03-23T12:06:14;100305.08;;;15.37;67.26
58991;BME280;44781;53.444;14.476;2023-03-23T12:09:54;100289.52;;;15.35;67.28
58991;BME280;44781;53.444;14.476;2023-03-23T12:15:53;100305.26;;;15.46;67.35
58991;BME280;44781;53.444;14.476;2023-03-23T12:21:08;100306.67;;;15.50;66.86
58991;BME280;44781;53.444;14.476;2023-03-23T12:30:41;100305.38;;;15.47;65.63
58991;BME280;44781;53.444;14.476;2023-03-23T12:36:42;100300.23;;;15.36;65.13
58991;BME280;44781;53.444;14.476;2023-03-23T12:39:57;100294.73;;;15.32;65.19
58991;BME280;44781;53.444;14.476;2023-03-23T12:42:47;100299.82;;;15.32;65.23
58991;BME280;44781;53.444;14.476;2023-03-23T12:48:29;100305.46;;;15.29;65.18
58991;BME280;44781;53.444;14.476;2023-03-23T12:51:24;100307.89;;;15.27;64.79
58991;BME280;44781;53.444;14.476;2023-03-23T12:54:26;100308.09;;;15.27;64.70
58991;BME280;44781;53.444;14.476;2023-03-23T13:00:20;100315.77;;;15.25;64.29
58991;BME280;44781;53.444;14.476;2023-03-23T13:06:07;100309.98;;;15.19;64.02
58991;BME280;44781;53.444;14.476;2023-03-23T13:11:41;100315.23;;;15.13;64.13
58991;BME280;44781;53.444;14.476;2023-03-23T13:23:50;100311.26;;;15.10;63.84
58991;BME280;44781;53.444;14.476;2023-03-23T13:27:22;100312.26;;;15.11;63.87
58991;BME280;44781;53.444;14.476;2023-03-23T13:34:19;100288.73;;;15.08;63.97
58991;BME280;44781;53.444;14.476;2023-03-23T13:37:58;100297.33;;;15.17;63.48
58991;BME280;44781;53.444;14.476;2023-03-23T13:40:47;100305.23;;;15.22;63.32
58991;BME280;44781;53.444;14.476;2023-03-23T13:44:38;100308.20;;;15.30;63.24
58991;BME280;44781;53.444;14.476;2023-03-23T13:53:12;100298.57;;;15.42;62.96
58991;BME280;44781;53.444;14.476;2023-03-23T14:02:45;100308.59;;;15.45;62.12
58991;BME280;44781;53.444;14.476;2023-03-23T14:07:55;100299.47;;;15.44;62.21
58991;BME280;44781;53.444;14.476;2023-03-23T14:10:39;100301.80;;;15.42;62.28
58991;BME280;44781;53.444;14.476;2023-03-23T14:15:55;100306.59;;;15.38;61.76
58991;BME280;44781;53.444;14.476;2023-03-23T14:18:36;100291.45;;;15.35;61.67
58991;BME280;44781;53.444;14.476;2023-03-23T14:21:05;100300.15;;;15.33;61.87
58991;BME280;44781;53.444;14.476;2023-03-23T14:23:35;100307.23;;;15.32;61.54
58991;BME280;44781;53.444;14.476;2023-03-23T14:31:04;100329.75;;;15.23;62.57
58991;BME280;44781;53.444;14.476;2023-03-23T14:35:17;100329.89;;;15.13;62.80
58991;BME280;44781;53.444;14.476;2023-03-23T14:51:24;100351.89;;;14.07;64.97
58991;BME280;44781;53.444;14.476;2023-03-23T14:53:52;100370.25;;;13.90;65.89
58991;BME280;44781;53.444;14.476;2023-03-23T14:56:22;100386.76;;;13.77;66.89
58991;BME280;44781;53.444;14.476;2023-03-23T14:58:52;100405.40;;;13.67;67.60
58991;BME280;44781;53.444;14.476;2023-03-23T15:01:27;100404.11;;;13.58;68.25
58991;BME280;44781;53.444;14.476;2023-03-23T15:04:14;100391.98;;;13.52;69.12
58991;BME280;44781;53.444;14.476;2023-03-23T15:07:06;100390.85;;;13.43;69.71
58991;BME280;44781;53.444;14.476;2023-03-23T15:09:33;100380.66;;;13.32;70.23
58991;BME280;44781;53.444;14.476;2023-03-23T15:12:03;100379.35;;;13.21;70.48
58991;BME280;44781;53.444;14.476;2023-03-23T15:14:51;100375.33;;;13.13;70.77
58991;BME280;44781;53.444;14.476;2023-03-23T15:17:31;100377.83;;;13.09;71.34
58991;BME280;44781;53.444;14.476;2023-03-23T15:20:08;100381.64;;;13.10;71.76
58991;BME280;44781;53.444;14.476;2023-03-23T15:22:45;100375.20;;;13.12;72.22
58991;BME280;44781;53.444;14.476;2023-03-23T15:25:29;100367.60;;;13.18;72.59
58991;BME280;44781;53.444;14.476;2023-03-23T15:30:36;100358.42;;;13.33;72.69
58991;BME280;44781;53.444;14.476;2023-03-23T15:36:35;100359.72;;;13.36;72.39
58991;BME280;44781;53.444;14.476;2023-03-23T15:39:02;100362.16;;;13.38;72.45
58991;BME280;44781;53.444;14.476;2023-03-23T15:41:32;100367.13;;;13.42;72.56
58991;BME280;44781;53.444;14.476;2023-03-23T15:44:20;100370.71;;;13.49;72.73
58991;BME280;44781;53.444;14.476;2023-03-23T15:47:17;100369.03;;;13.65;73.02
58991;BME280;44781;53.444;14.476;2023-03-23T15:49:45;100362.33;;;13.80;73.13
58991;BME280;44781;53.444;14.476;2023-03-23T15:52:14;100364.74;;;13.97;72.56
58991;BME280;44781;53.444;14.476;2023-03-23T15:54:48;100365.05;;;14.14;72.31
58991;BME280;44781;53.444;14.476;2023-03-23T15:57:19;100360.15;;;14.30;71.56
58991;BME280;44781;53.444;14.476;2023-03-23T15:59:46;100361.73;;;14.43;71.05
58991;BME280;44781;53.444;14.476;2023-03-23T16:02:19;100362.56;;;14.54;71.02
58991;BME280;44781;53.444;14.476;2023-03-23T16:04:49;100368.11;;;14.68;70.93
58991;BME280;44781;53.444;14.476;2023-03-23T16:07:21;100372.27;;;14.82;70.97
58991;BME280;44781;53.444;14.476;2023-03-23T16:10:01;100373.25;;;14.95;70.85
58991;BME280;44781;53.444;14.476;2023-03-23T16:12:39;100374.22;;;15.05;70.25
58991;BME280;44781;53.444;14.476;2023-03-23T16:15:10;100372.88;;;15.10;69.34
58991;BME280;44781;53.444;14.476;2023-03-23T16:17:44;100374.98;;;15.10;69.10
58991;BME280;44781;53.444;14.476;2023-03-23T16:20:18;100375.15;;;15.08;68.50
58991;BME280;44781;53.444;14.476;2023-03-23T16:23:05;100383.64;;;15.05;68.17
58991;BME280;44781;53.444;14.476;2023-03-23T16:25:47;100389.73;;;15.01;68.04
58991;BME280;44781;53.444;14.476;2023-03-23T16:28:15;100391.75;;;14.95;68.07
58991;BME280;44781;53.444;14.476;2023-03-23T16:30:48;100387.22;;;14.87;67.86
58991;BME280;44781;53.444;14.476;2023-03-23T16:33:25;100395.63;;;14.79;68.03
58991;BME280;44781;53.444;14.476;2023-03-23T16:35:52;100395.34;;;14.74;67.89
58991;BME280;44781;53.444;14.476;2023-03-23T16:38:24;100400.02;;;14.69;67.91
58991;BME280;44781;53.444;14.476;2023-03-23T16:41:02;100408.42;;;14.65;67.70
58991;BME280;44781;53.444;14.476;2023-03-23T16:43:29;100419.70;;;14.61;67.85
58991;BME280;44781;53.444;14.476;2023-03-23T16:45:57;100429.25;;;14.57;67.70
58991;BME280;44781;53.444;14.476;2023-03-23T16:48:25;100434.50;;;14.53;67.50
58991;BME280;44781;53.444;14.476;2023-03-23T16:50:53;100440.52;;;14.46;67.56
58991;BME280;44781;53.444;14.476;2023-03-23T16:53:21;100452.30;;;14.38;67.59
58991;BME280;44781;53.444;14.476;2023-03-23T16:55:50;100471.99;;;14.31;67.22
58991;BME280;44781;53.444;14.476;2023-03-23T16:58:18;100476.45;;;14.23;67.34
58991;BME280;44781;53.444;14.476;2023-03-23T17:00:50;100471.09;;;14.12;67.66
58991;BME280;44781;53.444;14.476;2023-03-23T17:03:18;100477.10;;;14.03;67.65
58991;BME280;44781;53.444;14.476;2023-03-23T17:05:48;100487.73;;;13.94;67.96
58991;BME280;44781;53.444;14.476;2023-03-23T17:08:17;100483.20;;;13.86;68.23
58991;BME280;44781;53.444;14.476;2023-03-23T17:10:44;100474.52;;;13.78;68.74
58991;BME280;44781;53.444;14.476;2023-03-23T17:13:12;100473.66;;;13.72;69.08
58991;BME280;44781;53.444;14.476;2023-03-23T17:15:41;100476.48;;;13.66;69.50
58991;BME280;44781;53.444;14.476;2023-03-23T17:18:09;100482.03;;;13.62;69.54
58991;BME280;44781;53.444;14.476;2023-03-23T17:20:36;100479.93;;;13.58;69.62
58991;BME280;44781;53.444;14.476;2023-03-23T17:23:04;100476.27;;;13.53;69.62
58991;BME280;44781;53.444;14.476;2023-03-23T17:25:31;100478.21;;;13.46;69.77
58991;BME280;44781;53.444;14.476;2023-03-23T17:27:59;100489.94;;;13.38;69.90
58991;BME280;44781;53.444;14.476;2023-03-23T17:30:26;100497.78;;;13.31;70.33
58991;BME280;44781;53.444;14.476;2023-03-23T17:32:54;100493.73;;;13.25;70.39
58991;BME280;44781;53.444;14.476;2023-03-23T17:35:23;100488.69;;;13.20;70.68
58991;BME280;44781;53.444;14.476;2023-03-23T17:37:55;100486.14;;;13.17;70.80
58991;BME280;44781;53.444;14.476;2023-03-23T17:40:23;100486.16;;;13.17;71.17
58991;BME280;44781;53.444;14.476;2023-03-23T17:42:51;100481.60;;;13.16;71.06
58991;BME280;44781;53.444;14.476;2023-03-23T17:45:18;100482.31;;;13.14;71.30
58991;BME280;44781;53.444;14.476;2023-03-23T17:47:46;100478.60;;;13.12;71.41
58991;BME280;44781;53.444;14.476;2023-03-23T17:50:13;100476.36;;;13.10;71.67
58991;BME280;44781;53.444;14.476;2023-03-23T17:52:43;100481.94;;;13.07;71.59
58991;BME280;44781;53.444;14.476;2023-03-23T17:55:12;100477.46;;;13.03;71.81
58991;BME280;44781;53.444;14.476;2023-03-23T17:57:39;100473.39;;;12.99;71.93
58991;BME280;44781;53.444;14.476;2023-03-23T18:00:07;100471.77;;;12.95;72.01
58991;BME280;44781;53.444;14.476;2023-03-23T18:02:35;100474.95;;;12.94;72.16
58991;BME280;44781;53.444;14.476;2023-03-23T18:05:13;100469.48;;;12.93;72.13
58991;BME280;44781;53.444;14.476;2023-03-23T18:07:42;100467.56;;;12.93;72.18
58991;BME280;44781;53.444;14.476;2023-03-23T18:10:14;100480.58;;;12.92;72.15
58991;BME280;44781;53.444;14.476;2023-03-23T18:12:42;100487.35;;;12.90;72.27
58991;BME280;44781;53.444;14.476;2023-03-23T18:15:11;100479.21;;;12.88;72.33
58991;BME280;44781;53.444;14.476;2023-03-23T18:17:41;100474.65;;;12.83;72.38
58991;BME280;44781;53.444;14.476;2023-03-23T18:20:26;100479.84;;;12.79;72.48
58991;BME280;44781;53.444;14.476;2023-03-23T18:23:05;100469.72;;;12.69;72.64
58991;BME280;44781;53.444;14.476;2023-03-23T18:25:45;100479.02;;;12.72;72.75
58991;BME280;44781;53.444;14.476;2023-03-23T18:28:15;100482.35;;;12.71;72.74
58991;BME280;44781;53.444;14.476;2023-03-23T18:31:18;100484.08;;;12.69;72.97
58991;BME280;44781;53.444;14.476;2023-03-23T18:33:52;100481.27;;;12.67;72.97
58991;BME280;44781;53.444;14.476;2023-03-23T18:40:44;100489.20;;;12.57;72.94
58991;BME280;44781;53.444;14.476;2023-03-23T18:43:15;100499.33;;;12.53;72.78
58991;BME280;44781;53.444;14.476;2023-03-23T18:45:51;100508.92;;;12.49;72.76
58991;BME280;44781;53.444;14.476;2023-03-23T18:48:34;100511.06;;;12.44;72.78
58991;BME280;44781;53.444;14.476;2023-03-23T18:51:27;100523.86;;;12.42;72.58
58991;BME280;44781;53.444;14.476;2023-03-23T18:54:07;100530.52;;;12.41;72.60
58991;BME280;44781;53.444;14.476;2023-03-23T18:56:34;100534.85;;;12.40;72.72
58991;BME280;44781;53.444;14.476;2023-03-23T18:59:03;100535.10;;;12.39;72.82
58991;BME280;44781;53.444;14.476;2023-03-23T19:01:41;100530.36;;;12.36;72.74
58991;BME280;44781;53.444;14.476;2023-03-23T19:04:09;100533.63;;;12.34;72.82
58991;BME280;44781;53.444;14.476;2023-03-23T19:06:39;100524.16;;;12.24;72.89
58991;BME280;44781;53.444;14.476;2023-03-23T19:09:07;100533.53;;;12.24;72.78
58991;BME280;44781;53.444;14.476;2023-03-23T19:11:34;100534.69;;;12.21;72.70
58991;BME280;44781;53.444;14.476;2023-03-23T19:14:05;100535.09;;;12.18;72.66
58991;BME280;44781;53.444;14.476;2023-03-23T19:16:38;100530.83;;;12.16;72.80
58991;BME280;44781;53.444;14.476;2023-03-23T19:19:06;100527.30;;;12.14;72.74
58991;BME280;44781;53.444;14.476;2023-03-23T19:21:36;100530.31;;;12.12;73.07
58991;BME280;44781;53.444;14.476;2023-03-23T19:24:04;100524.77;;;12.11;73.12
58991;BME280;44781;53.444;14.476;2023-03-23T19:26:39;100537.39;;;12.08;72.93
58991;BME280;44781;53.444;14.476;2023-03-23T19:29:09;100542.41;;;12.06;73.13
58991;BME280;44781;53.444;14.476;2023-03-23T19:31:40;100543.88;;;12.01;73.15
58991;BME280;44781;53.444;14.476;2023-03-23T19:34:14;100548.49;;;11.94;73.10
58991;BME280;44781;53.444;14.476;2023-03-23T19:36:48;100549.67;;;11.91;73.15
58991;BME280;44781;53.444;14.476;2023-03-23T19:39:15;100554.03;;;11.89;73.37
58991;BME280;44781;53.444;14.476;2023-03-23T19:41:51;100558.32;;;11.89;73.46
58991;BME280;44781;53.444;14.476;2023-03-23T19:44:19;100561.31;;;11.89;73.56
58991;BME280;44781;53.444;14.476;2023-03-23T19:46:47;100559.52;;;11.89;73.52
58991;BME280;44781;53.444;14.476;2023-03-23T19:49:18;100558.05;;;11.86;73.58
58991;BME280;44781;53.444;14.476;2023-03-23T19:51:45;100556.75;;;11.84;73.71
58991;BME280;44781;53.444;14.476;2023-03-23T19:54:12;100555.50;;;11.80;73.67
58991;BME280;44781;53.444;14.476;2023-03-23T19:56:40;100554.39;;;11.76;73.54
58991;BME280;44781;53.444;14.476;2023-03-23T19:59:11;100549.61;;;11.72;73.42
58991;BME280;44781;53.444;14.476;2023-03-23T20:01:41;100553.75;;;11.70;73.46
58991;BME280;44781;53.444;14.476;2023-03-23T20:04:11;100553.83;;;11.69;73.66
58991;BME280;44781;53.444;14.476;2023-03-23T20:06:38;100556.21;;;11.67;73.84
58991;BME280;44781;53.444;14.476;2023-03-23T20:09:06;100554.84;;;11.65;73.99
58991;BME280;44781;53.444;14.476;2023-03-23T20:11:35;100561.14;;;11.63;73.77
58991;BME280;44781;53.444;14.476;2023-03-23T20:14:18;100561.90;;;11.61;73.65
58991;BME280;44781;53.444;14.476;2023-03-23T20:16:50;100558.83;;;11.57;73.70
58991;BME280;44781;53.444;14.476;2023-03-23T20:19:32;100556.33;;;11.53;73.70
58991;BME280;44781;53.444;14.476;2023-03-23T20:22:02;100562.40;;;11.50;73.75
58991;BME280;44781;53.444;14.476;2023-03-23T20:24:52;100565.65;;;11.50;73.84
58991;BME280;44781;53.444;14.476;2023-03-23T20:27:24;100566.24;;;11.49;73.91
58991;BME280;44781;53.444;14.476;2023-03-23T20:29:54;100565.73;;;11.49;73.87
58991;BME280;44781;53.444;14.476;2023-03-23T20:32:22;100562.13;;;11.47;73.79
58991;BME280;44781;53.444;14.476;2023-03-23T20:34:49;100567.27;;;11.44;73.75
58991;BME280;44781;53.444;14.476;2023-03-23T20:37:18;100567.59;;;11.41;73.77
58991;BME280;44781;53.444;14.476;2023-03-23T20:39:47;100568.86;;;11.36;73.98
58991;BME280;44781;53.444;14.476;2023-03-23T20:42:15;100571.06;;;11.31;73.85
58991;BME280;44781;53.444;14.476;2023-03-23T20:44:47;100571.13;;;11.28;73.88
58991;BME280;44781;53.444;14.476;2023-03-23T20:47:17;100574.63;;;11.26;73.86
58991;BME280;44781;53.444;14.476;2023-03-23T20:49:51;100576.10;;;11.26;73.96
58991;BME280;44781;53.444;14.476;2023-03-23T20:52:22;100573.38;;;11.24;74.22
58991;BME280;44781;53.444;14.476;2023-03-23T20:54:53;100575.04;;;11.23;74.31
58991;BME280;44781;53.444;14.476;2023-03-23T20:57:23;100564.73;;;11.20;74.25
58991;BME280;44781;53.444;14.476;2023-03-23T20:59:50;100561.71;;;11.18;74.17
58991;BME280;44781;53.444;14.476;2023-03-23T21:02:23;100560.45;;;11.14;74.19
58991;BME280;44781;53.444;14.476;2023-03-23T21:04:51;100563.13;;;11.09;74.24
58991;BME280;44781;53.444;14.476;2023-03-23T21:07:20;100565.27;;;11.04;74.19
58991;BME280;44781;53.444;14.476;2023-03-23T21:09:51;100570.55;;;11.00;74.15
58991;BME280;44781;53.444;14.476;2023-03-23T21:12:20;100576.41;;;10.96;74.13
58991;BME280;44781;53.444;14.476;2023-03-23T21:14:58;100575.37;;;10.91;74.18
58991;BME280;44781;53.444;14.476;2023-03-23T21:17:25;100578.50;;;10.87;74.13
58991;BME280;44781;53.444;14.476;2023-03-23T21:19:53;100586.08;;;10.83;74.06
58991;BME280;44781;53.444;14.476;2023-03-23T21:22:20;100587.93;;;10.77;74.08
58991;BME280;44781;53.444;14.476;2023-03-23T21:24:49;100583.58;;;10.70;74.09
58991;BME280;44781;53.444;14.476;2023-03-23T21:27:19;100576.02;;;10.60;74.17
58991;BME280;44781;53.444;14.476;2023-03-23T21:29:56;100577.62;;;10.56;74.15
58991;BME280;44781;53.444;14.476;2023-03-23T21:32:23;100580.05;;;10.52;74.33
58991;BME280;44781;53.444;14.476;2023-03-23T21:34:54;100579.20;;;10.50;74.56
58991;BME280;44781;53.444;14.476;2023-03-23T21:37:27;100575.27;;;10.48;74.55
58991;BME280;44781;53.444;14.476;2023-03-23T21:39:54;100575.19;;;10.44;74.81
58991;BME280;44781;53.444;14.476;2023-03-23T21:42:22;100574.24;;;10.40;74.74
58991;BME280;44781;53.444;14.476;2023-03-23T21:45:09;100575.67;;;10.36;74.91
58991;BME280;44781;53.444;14.476;2023-03-23T21:47:49;100574.27;;;10.31;75.02
58991;BME280;44781;53.444;14.476;2023-03-23T21:50:41;100575.65;;;10.26;75.09
58991;BME280;44781;53.444;14.476;2023-03-23T21:53:22;100570.70;;;10.22;75.18
58991;BME280;44781;53.444;14.476;2023-03-23T21:56:00;100566.41;;;10.18;75.09
58991;BME280;44781;53.444;14.476;2023-03-23T21:58:36;100556.70;;;10.14;75.17
58991;BME280;44781;53.444;14.476;2023-03-23T22:01:10;100552.27;;;10.09;75.48
58991;BME280;44781;53.444;14.476;2023-03-23T22:03:54;100553.81;;;10.03;75.57
58991;BME280;44781;53.444;14.476;2023-03-23T22:06:28;100551.73;;;9.98;75.70
58991;BME280;44781;53.444;14.476;2023-03-23T22:09:29;100550.06;;;9.92;75.97
58991;BME280;44781;53.444;14.476;2023-03-23T22:12:16;100544.05;;;9.87;75.94
58991;BME280;44781;53.444;14.476;2023-03-23T22:15:00;100535.14;;;9.84;75.94
58991;BME280;44781;53.444;14.476;2023-03-23T22:18:14;100535.48;;;9.77;75.76
58991;BME280;44781;53.444;14.476;2023-03-23T22:25:18;100540.35;;;9.62;75.63
58991;BME280;44781;53.444;14.476;2023-03-23T22:31:57;100536.13;;;9.35;75.62
58991;BME280;44781;53.444;14.476;2023-03-23T22:35:12;100528.15;;;9.27;75.76
58991;BME280;44781;53.444;14.476;2023-03-23T22:38:16;100523.84;;;9.23;75.86
58991;BME280;44781;53.444;14.476;2023-03-23T22:41:37;100522.77;;;9.21;76.28
58991;BME280;44781;53.444;14.476;2023-03-23T22:44:35;100523.23;;;9.19;76.64
58991;BME280;44781;53.444;14.476;2023-03-23T22:47:27;100523.49;;;9.16;76.76
58991;BME280;44781;53.444;14.476;2023-03-23T22:50:58;100522.06;;;9.09;76.72